sensor_id;sensor_type;location;lat;lon;timestamp;P1;durP1;ratioP1;P2;durP2;ratioP2
30149;SDS011;16962;48.646;9.026;2023-03-13T00:00:41;15.15;;;5.50;;
30149;SDS011;16962;48.646;9.026;2023-03-13T00:03:30;14.23;;;5.22;;
30149;SDS011;16962;48.646;9.026;2023-03-13T00:06:18;22.67;;;5.38;;
30149;SDS011;16962;48.646;9.026;2023-03-13T00:09:09;18.40;;;5.70;;
30149;SDS011;16962;48.646;9.026;2023-03-13T00:11:58;24.38;;;6.10;;
30149;SDS011;16962;48.646;9.026;2023-03-13T00:14:48;26.50;;;5.82;;
30149;SDS011;16962;48.646;9.026;2023-03-13T00:17:36;20.00;;;4.95;;
30149;SDS011;16962;48.646;9.026;2023-03-13T00:20:26;21.02;;;5.65;;
30149;SDS011;16962;48.646;9.026;2023-03-13T00:23:14;20.30;;;5.20;;
30149;SDS011;16962;48.646;9.026;2023-03-13T00:26:02;20.50;;;4.25;;
30149;SDS011;16962;48.646;9.026;2023-03-13T00:28:52;21.17;;;4.80;;
30149;SDS011;16962;48.646;9.026;2023-03-13T00:31:39;25.23;;;4.93;;
30149;SDS011;16962;48.646;9.026;2023-03-13T00:34:27;26.10;;;7.30;;
30149;SDS011;16962;48.646;9.026;2023-03-13T00:37:14;21.98;;;5.82;;
30149;SDS011;16962;48.646;9.026;2023-03-13T00:40:03;18.65;;;4.70;;
30149;SDS011;16962;48.646;9.026;2023-03-13T00:42:52;20.23;;;4.28;;
30149;SDS011;16962;48.646;9.026;2023-03-13T00:45:39;20.30;;;4.55;;
30149;SDS011;16962;48.646;9.026;2023-03-13T00:48:29;18.58;;;4.13;;
30149;SDS011;16962;48.646;9.026;2023-03-13T00:51:17;15.35;;;3.97;;
30149;SDS011;16962;48.646;9.026;2023-03-13T00:54:06;13.95;;;4.05;;
30149;SDS011;16962;48.646;9.026;2023-03-13T00:56:54;17.50;;;4.00;;
30149;SDS011;16962;48.646;9.026;2023-03-13T00:59:41;17.15;;;3.47;;
30149;SDS011;16962;48.646;9.026;2023-03-13T01:02:29;13.70;;;3.05;;
30149;SDS011;16962;48.646;9.026;2023-03-13T01:05:16;14.73;;;3.97;;
30149;SDS011;16962;48.646;9.026;2023-03-13T01:08:06;17.23;;;3.70;;
30149;SDS011;16962;48.646;9.026;2023-03-13T01:11:01;19.98;;;3.22;;
30149;SDS011;16962;48.646;9.026;2023-03-13T01:13:54;12.48;;;3.28;;
30149;SDS011;16962;48.646;9.026;2023-03-13T01:16:43;8.40;;;2.92;;
30149;SDS011;16962;48.646;9.026;2023-03-13T01:19:31;16.88;;;3.60;;
30149;SDS011;16962;48.646;9.026;2023-03-13T01:22:19;12.45;;;2.92;;
30149;SDS011;16962;48.646;9.026;2023-03-13T01:25:14;9.45;;;2.58;;
30149;SDS011;16962;48.646;9.026;2023-03-13T01:28:02;8.68;;;2.80;;
30149;SDS011;16962;48.646;9.026;2023-03-13T01:30:50;12.15;;;2.60;;
30149;SDS011;16962;48.646;9.026;2023-03-13T01:33:38;14.00;;;3.28;;
30149;SDS011;16962;48.646;9.026;2023-03-13T01:36:25;13.15;;;2.70;;
30149;SDS011;16962;48.646;9.026;2023-03-13T01:39:13;8.45;;;2.90;;
30149;SDS011;16962;48.646;9.026;2023-03-13T01:42:02;10.38;;;2.85;;
30149;SDS011;16962;48.646;9.026;2023-03-13T01:44:55;9.95;;;3.45;;
30149;SDS011;16962;48.646;9.026;2023-03-13T01:47:43;14.82;;;3.13;;
30149;SDS011;16962;48.646;9.026;2023-03-13T01:50:33;13.18;;;2.72;;
30149;SDS011;16962;48.646;9.026;2023-03-13T01:53:21;9.32;;;2.78;;
30149;SDS011;16962;48.646;9.026;2023-03-13T01:56:12;10.07;;;2.40;;
30149;SDS011;16962;48.646;9.026;2023-03-13T01:59:05;10.02;;;2.45;;
30149;SDS011;16962;48.646;9.026;2023-03-13T02:01:56;13.20;;;2.80;;
30149;SDS011;16962;48.646;9.026;2023-03-13T02:04:46;8.30;;;2.20;;
30149;SDS011;16962;48.646;9.026;2023-03-13T02:07:38;10.15;;;2.92;;
30149;SDS011;16962;48.646;9.026;2023-03-13T02:10:33;10.57;;;2.88;;
30149;SDS011;16962;48.646;9.026;2023-03-13T02:13:28;7.63;;;2.83;;
30149;SDS011;16962;48.646;9.026;2023-03-13T02:16:15;9.70;;;2.00;;
30149;SDS011;16962;48.646;9.026;2023-03-13T02:19:16;10.85;;;2.45;;
30149;SDS011;16962;48.646;9.026;2023-03-13T02:28:11;10.90;;;2.28;;
30149;SDS011;16962;48.646;9.026;2023-03-13T02:30:59;10.90;;;2.25;;
30149;SDS011;16962;48.646;9.026;2023-03-13T02:33:47;7.07;;;1.60;;
30149;SDS011;16962;48.646;9.026;2023-03-13T02:36:34;7.32;;;1.77;;
30149;SDS011;16962;48.646;9.026;2023-03-13T02:39:23;7.70;;;2.30;;
30149;SDS011;16962;48.646;9.026;2023-03-13T02:42:13;5.93;;;2.75;;
30149;SDS011;16962;48.646;9.026;2023-03-13T02:45:04;6.55;;;1.92;;
30149;SDS011;16962;48.646;9.026;2023-03-13T02:47:52;4.28;;;1.70;;
30149;SDS011;16962;48.646;9.026;2023-03-13T02:50:40;5.35;;;2.08;;
30149;SDS011;16962;48.646;9.026;2023-03-13T02:53:27;4.78;;;1.70;;
30149;SDS011;16962;48.646;9.026;2023-03-13T02:56:16;7.70;;;1.50;;
30149;SDS011;16962;48.646;9.026;2023-03-13T02:59:10;5.72;;;1.73;;
30149;SDS011;16962;48.646;9.026;2023-03-13T03:01:57;8.10;;;1.80;;
30149;SDS011;16962;48.646;9.026;2023-03-13T03:04:45;10.82;;;2.17;;
30149;SDS011;16962;48.646;9.026;2023-03-13T03:07:36;2.55;;;1.52;;
30149;SDS011;16962;48.646;9.026;2023-03-13T03:10:25;7.40;;;2.05;;
30149;SDS011;16962;48.646;9.026;2023-03-13T03:13:16;7.33;;;1.90;;
30149;SDS011;16962;48.646;9.026;2023-03-13T03:16:04;4.70;;;1.70;;
30149;SDS011;16962;48.646;9.026;2023-03-13T03:18:53;5.13;;;1.60;;
30149;SDS011;16962;48.646;9.026;2023-03-13T03:21:42;6.28;;;1.58;;
30149;SDS011;16962;48.646;9.026;2023-03-13T03:24:29;6.68;;;1.90;;
30149;SDS011;16962;48.646;9.026;2023-03-13T03:27:17;5.63;;;1.70;;
30149;SDS011;16962;48.646;9.026;2023-03-13T03:30:04;7.25;;;2.15;;
30149;SDS011;16962;48.646;9.026;2023-03-13T03:32:52;4.25;;;1.73;;
30149;SDS011;16962;48.646;9.026;2023-03-13T03:35:39;5.78;;;1.77;;
30149;SDS011;16962;48.646;9.026;2023-03-13T03:38:26;5.32;;;1.23;;
30149;SDS011;16962;48.646;9.026;2023-03-13T03:41:16;5.45;;;1.35;;
30149;SDS011;16962;48.646;9.026;2023-03-13T03:44:04;5.45;;;1.90;;
30149;SDS011;16962;48.646;9.026;2023-03-13T03:46:52;5.75;;;1.50;;
30149;SDS011;16962;48.646;9.026;2023-03-13T03:49:39;3.28;;;1.75;;
30149;SDS011;16962;48.646;9.026;2023-03-13T03:52:27;4.95;;;1.30;;
30149;SDS011;16962;48.646;9.026;2023-03-13T03:55:19;5.30;;;1.63;;
30149;SDS011;16962;48.646;9.026;2023-03-13T03:58:06;2.28;;;1.20;;
30149;SDS011;16962;48.646;9.026;2023-03-13T04:00:55;3.88;;;1.23;;
30149;SDS011;16962;48.646;9.026;2023-03-13T04:03:43;3.10;;;1.10;;
30149;SDS011;16962;48.646;9.026;2023-03-13T04:06:31;2.45;;;1.20;;
30149;SDS011;16962;48.646;9.026;2023-03-13T04:09:18;3.30;;;1.05;;
30149;SDS011;16962;48.646;9.026;2023-03-13T04:12:06;4.18;;;1.10;;
30149;SDS011;16962;48.646;9.026;2023-03-13T04:14:55;1.58;;;1.00;;
30149;SDS011;16962;48.646;9.026;2023-03-13T04:17:44;3.33;;;1.10;;
30149;SDS011;16962;48.646;9.026;2023-03-13T04:20:32;2.47;;;1.20;;
30149;SDS011;16962;48.646;9.026;2023-03-13T04:23:19;2.33;;;1.05;;
30149;SDS011;16962;48.646;9.026;2023-03-13T04:26:08;2.90;;;1.00;;
30149;SDS011;16962;48.646;9.026;2023-03-13T04:28:55;2.45;;;1.30;;
30149;SDS011;16962;48.646;9.026;2023-03-13T04:31:42;3.92;;;1.13;;
30149;SDS011;16962;48.646;9.026;2023-03-13T04:34:30;3.75;;;1.40;;
30149;SDS011;16962;48.646;9.026;2023-03-13T04:37:18;3.15;;;1.30;;
30149;SDS011;16962;48.646;9.026;2023-03-13T04:40:07;3.13;;;1.30;;
30149;SDS011;16962;48.646;9.026;2023-03-13T04:42:55;3.97;;;1.42;;
30149;SDS011;16962;48.646;9.026;2023-03-13T04:45:44;2.60;;;1.00;;
30149;SDS011;16962;48.646;9.026;2023-03-13T04:48:32;3.65;;;1.02;;
30149;SDS011;16962;48.646;9.026;2023-03-13T04:51:19;3.95;;;1.35;;
30149;SDS011;16962;48.646;9.026;2023-03-13T04:54:07;1.27;;;1.10;;
30149;SDS011;16962;48.646;9.026;2023-03-13T04:56:55;2.78;;;1.15;;
30149;SDS011;16962;48.646;9.026;2023-03-13T04:59:42;3.03;;;1.25;;
30149;SDS011;16962;48.646;9.026;2023-03-13T05:02:38;3.13;;;1.15;;
30149;SDS011;16962;48.646;9.026;2023-03-13T05:05:28;1.80;;;0.90;;
30149;SDS011;16962;48.646;9.026;2023-03-13T05:08:15;1.27;;;0.90;;
30149;SDS011;16962;48.646;9.026;2023-03-13T05:11:03;2.38;;;1.10;;
30149;SDS011;16962;48.646;9.026;2023-03-13T05:13:51;3.80;;;0.90;;
30149;SDS011;16962;48.646;9.026;2023-03-13T05:16:38;3.55;;;1.05;;
30149;SDS011;16962;48.646;9.026;2023-03-13T05:19:26;2.22;;;0.85;;
30149;SDS011;16962;48.646;9.026;2023-03-13T05:22:13;1.85;;;0.90;;
30149;SDS011;16962;48.646;9.026;2023-03-13T05:25:00;2.25;;;1.00;;
30149;SDS011;16962;48.646;9.026;2023-03-13T05:27:50;2.63;;;1.25;;
30149;SDS011;16962;48.646;9.026;2023-03-13T05:30:37;1.70;;;1.00;;
30149;SDS011;16962;48.646;9.026;2023-03-13T05:33:25;2.10;;;1.00;;
30149;SDS011;16962;48.646;9.026;2023-03-13T05:36:13;2.05;;;1.10;;
30149;SDS011;16962;48.646;9.026;2023-03-13T05:39:01;2.33;;;0.90;;
30149;SDS011;16962;48.646;9.026;2023-03-13T05:41:48;2.67;;;1.10;;
30149;SDS011;16962;48.646;9.026;2023-03-13T05:44:41;4.43;;;1.00;;
30149;SDS011;16962;48.646;9.026;2023-03-13T05:47:28;1.83;;;1.10;;
30149;SDS011;16962;48.646;9.026;2023-03-13T05:50:15;0.98;;;0.80;;
30149;SDS011;16962;48.646;9.026;2023-03-13T05:53:03;2.22;;;0.95;;
30149;SDS011;16962;48.646;9.026;2023-03-13T05:55:50;2.03;;;0.90;;
30149;SDS011;16962;48.646;9.026;2023-03-13T05:58:37;1.33;;;0.80;;
30149;SDS011;16962;48.646;9.026;2023-03-13T06:01:25;2.40;;;0.70;;
30149;SDS011;16962;48.646;9.026;2023-03-13T06:04:12;0.98;;;0.77;;
30149;SDS011;16962;48.646;9.026;2023-03-13T06:07:00;2.15;;;0.93;;
30149;SDS011;16962;48.646;9.026;2023-03-13T06:09:49;0.80;;;0.70;;
30149;SDS011;16962;48.646;9.026;2023-03-13T06:12:36;4.65;;;0.88;;
30149;SDS011;16962;48.646;9.026;2023-03-13T06:15:26;1.95;;;1.25;;
30149;SDS011;16962;48.646;9.026;2023-03-13T06:18:16;2.05;;;0.88;;
30149;SDS011;16962;48.646;9.026;2023-03-13T06:21:03;1.30;;;0.80;;
30149;SDS011;16962;48.646;9.026;2023-03-13T06:23:50;4.13;;;0.90;;
30149;SDS011;16962;48.646;9.026;2023-03-13T06:26:40;3.60;;;1.10;;
30149;SDS011;16962;48.646;9.026;2023-03-13T06:29:29;2.00;;;0.80;;
30149;SDS011;16962;48.646;9.026;2023-03-13T06:32:17;1.38;;;0.90;;
30149;SDS011;16962;48.646;9.026;2023-03-13T06:35:04;1.58;;;1.00;;
30149;SDS011;16962;48.646;9.026;2023-03-13T06:37:52;1.70;;;0.82;;
30149;SDS011;16962;48.646;9.026;2023-03-13T06:43:34;2.58;;;0.90;;
30149;SDS011;16962;48.646;9.026;2023-03-13T06:46:22;2.83;;;1.20;;
30149;SDS011;16962;48.646;9.026;2023-03-13T06:49:11;4.78;;;1.08;;
30149;SDS011;16962;48.646;9.026;2023-03-13T06:51:58;1.45;;;1.27;;
30149;SDS011;16962;48.646;9.026;2023-03-13T06:54:46;0.95;;;0.80;;
30149;SDS011;16962;48.646;9.026;2023-03-13T06:57:33;0.80;;;0.80;;
30149;SDS011;16962;48.646;9.026;2023-03-13T07:00:23;1.10;;;0.90;;
30149;SDS011;16962;48.646;9.026;2023-03-13T07:03:10;1.13;;;1.00;;
30149;SDS011;16962;48.646;9.026;2023-03-13T07:05:58;1.17;;;0.73;;
30149;SDS011;16962;48.646;9.026;2023-03-13T07:08:46;2.30;;;0.80;;
30149;SDS011;16962;48.646;9.026;2023-03-13T07:11:33;1.25;;;1.10;;
30149;SDS011;16962;48.646;9.026;2023-03-13T07:14:20;2.05;;;0.73;;
30149;SDS011;16962;48.646;9.026;2023-03-13T07:17:07;4.03;;;0.80;;
30149;SDS011;16962;48.646;9.026;2023-03-13T07:19:56;3.00;;;0.75;;
30149;SDS011;16962;48.646;9.026;2023-03-13T07:22:43;2.65;;;0.80;;
30149;SDS011;16962;48.646;9.026;2023-03-13T07:25:38;4.25;;;0.85;;
30149;SDS011;16962;48.646;9.026;2023-03-13T07:28:26;2.42;;;1.00;;
30149;SDS011;16962;48.646;9.026;2023-03-13T07:31:19;3.53;;;1.23;;
30149;SDS011;16962;48.646;9.026;2023-03-13T07:34:07;1.13;;;0.77;;
30149;SDS011;16962;48.646;9.026;2023-03-13T07:36:57;1.77;;;0.95;;
30149;SDS011;16962;48.646;9.026;2023-03-13T07:39:45;1.35;;;1.02;;
30149;SDS011;16962;48.646;9.026;2023-03-13T07:42:32;2.00;;;1.08;;
30149;SDS011;16962;48.646;9.026;2023-03-13T07:45:22;2.40;;;0.93;;
30149;SDS011;16962;48.646;9.026;2023-03-13T07:48:12;3.00;;;0.90;;
30149;SDS011;16962;48.646;9.026;2023-03-13T07:51:02;2.80;;;1.10;;
30149;SDS011;16962;48.646;9.026;2023-03-13T07:53:51;3.42;;;0.75;;
30149;SDS011;16962;48.646;9.026;2023-03-13T07:56:39;5.00;;;1.25;;
30149;SDS011;16962;48.646;9.026;2023-03-13T07:59:29;1.10;;;1.00;;
30149;SDS011;16962;48.646;9.026;2023-03-13T08:02:16;1.38;;;1.10;;
30149;SDS011;16962;48.646;9.026;2023-03-13T08:05:04;2.25;;;1.20;;
30149;SDS011;16962;48.646;9.026;2023-03-13T08:07:53;2.47;;;1.10;;
30149;SDS011;16962;48.646;9.026;2023-03-13T08:10:43;1.20;;;0.90;;
30149;SDS011;16962;48.646;9.026;2023-03-13T08:13:32;1.10;;;1.00;;
30149;SDS011;16962;48.646;9.026;2023-03-13T08:16:25;2.97;;;1.23;;
30149;SDS011;16962;48.646;9.026;2023-03-13T08:19:14;3.42;;;1.20;;
30149;SDS011;16962;48.646;9.026;2023-03-13T08:22:02;2.50;;;0.90;;
30149;SDS011;16962;48.646;9.026;2023-03-13T08:24:49;1.30;;;1.00;;
30149;SDS011;16962;48.646;9.026;2023-03-13T08:27:39;2.35;;;1.52;;
30149;SDS011;16962;48.646;9.026;2023-03-13T08:30:29;2.53;;;0.93;;
30149;SDS011;16962;48.646;9.026;2023-03-13T08:33:17;1.25;;;0.88;;
30149;SDS011;16962;48.646;9.026;2023-03-13T08:36:17;1.48;;;1.10;;
30149;SDS011;16962;48.646;9.026;2023-03-13T08:39:06;2.35;;;0.93;;
30149;SDS011;16962;48.646;9.026;2023-03-13T08:42:01;4.00;;;1.30;;
30149;SDS011;16962;48.646;9.026;2023-03-13T08:44:51;2.92;;;1.30;;
30149;SDS011;16962;48.646;9.026;2023-03-13T08:47:38;2.85;;;1.08;;
30149;SDS011;16962;48.646;9.026;2023-03-13T08:50:26;4.45;;;1.40;;
30149;SDS011;16962;48.646;9.026;2023-03-13T08:53:15;3.00;;;1.00;;
30149;SDS011;16962;48.646;9.026;2023-03-13T08:56:02;2.80;;;1.15;;
30149;SDS011;16962;48.646;9.026;2023-03-13T08:58:55;4.35;;;1.30;;
30149;SDS011;16962;48.646;9.026;2023-03-13T09:01:45;2.22;;;1.10;;
30149;SDS011;16962;48.646;9.026;2023-03-13T09:04:34;1.77;;;0.90;;
30149;SDS011;16962;48.646;9.026;2023-03-13T09:07:24;1.92;;;1.00;;
30149;SDS011;16962;48.646;9.026;2023-03-13T09:10:11;1.15;;;1.00;;
30149;SDS011;16962;48.646;9.026;2023-03-13T09:12:59;1.10;;;1.00;;
30149;SDS011;16962;48.646;9.026;2023-03-13T09:16:21;5.22;;;1.13;;
30149;SDS011;16962;48.646;9.026;2023-03-13T09:19:02;2.97;;;1.05;;
30149;SDS011;16962;48.646;9.026;2023-03-13T09:21:52;3.30;;;1.20;;
30149;SDS011;16962;48.646;9.026;2023-03-13T09:24:40;2.22;;;1.23;;
30149;SDS011;16962;48.646;9.026;2023-03-13T09:27:29;2.20;;;1.30;;
30149;SDS011;16962;48.646;9.026;2023-03-13T09:30:16;1.77;;;0.90;;
30149;SDS011;16962;48.646;9.026;2023-03-13T09:33:05;1.95;;;0.98;;
30149;SDS011;16962;48.646;9.026;2023-03-13T09:35:58;2.00;;;1.05;;
30149;SDS011;16962;48.646;9.026;2023-03-13T09:38:47;2.00;;;1.40;;
30149;SDS011;16962;48.646;9.026;2023-03-13T09:45:08;3.63;;;1.13;;
30149;SDS011;16962;48.646;9.026;2023-03-13T09:48:12;3.33;;;1.10;;
30149;SDS011;16962;48.646;9.026;2023-03-13T09:51:17;1.20;;;1.10;;
30149;SDS011;16962;48.646;9.026;2023-03-13T09:54:31;3.45;;;1.20;;
30149;SDS011;16962;48.646;9.026;2023-03-13T09:57:37;2.53;;;1.13;;
30149;SDS011;16962;48.646;9.026;2023-03-13T10:00:30;1.73;;;1.10;;
30149;SDS011;16962;48.646;9.026;2023-03-13T10:03:28;2.55;;;1.23;;
30149;SDS011;16962;48.646;9.026;2023-03-13T10:06:20;5.25;;;1.40;;
30149;SDS011;16962;48.646;9.026;2023-03-13T10:09:14;3.63;;;1.45;;
30149;SDS011;16962;48.646;9.026;2023-03-13T10:18:17;2.55;;;1.38;;
30149;SDS011;16962;48.646;9.026;2023-03-13T10:21:13;2.78;;;1.13;;
30149;SDS011;16962;48.646;9.026;2023-03-13T10:27:18;3.33;;;1.30;;
30149;SDS011;16962;48.646;9.026;2023-03-13T10:30:18;1.77;;;1.02;;
30149;SDS011;16962;48.646;9.026;2023-03-13T10:36:12;5.10;;;1.25;;
30149;SDS011;16962;48.646;9.026;2023-03-13T10:39:11;1.85;;;0.90;;
30149;SDS011;16962;48.646;9.026;2023-03-13T10:42:16;2.40;;;1.33;;
30149;SDS011;16962;48.646;9.026;2023-03-13T10:45:14;2.45;;;1.30;;
30149;SDS011;16962;48.646;9.026;2023-03-13T10:51:01;2.83;;;1.20;;
30149;SDS011;16962;48.646;9.026;2023-03-13T10:53:49;3.75;;;1.00;;
30149;SDS011;16962;48.646;9.026;2023-03-13T10:56:39;3.70;;;1.10;;
30149;SDS011;16962;48.646;9.026;2023-03-13T10:59:26;1.52;;;1.02;;
30149;SDS011;16962;48.646;9.026;2023-03-13T11:08:21;3.72;;;1.10;;
30149;SDS011;16962;48.646;9.026;2023-03-13T11:11:15;7.57;;;1.23;;
30149;SDS011;16962;48.646;9.026;2023-03-13T11:14:08;2.45;;;0.90;;
30149;SDS011;16962;48.646;9.026;2023-03-13T11:17:14;2.58;;;1.30;;
30149;SDS011;16962;48.646;9.026;2023-03-13T11:20:25;2.45;;;1.15;;
30149;SDS011;16962;48.646;9.026;2023-03-13T11:33:01;2.90;;;1.10;;
30149;SDS011;16962;48.646;9.026;2023-03-13T11:35:53;2.10;;;1.00;;
30149;SDS011;16962;48.646;9.026;2023-03-13T11:45:30;1.90;;;0.93;;
30149;SDS011;16962;48.646;9.026;2023-03-13T12:04:16;4.28;;;1.20;;
30149;SDS011;16962;48.646;9.026;2023-03-13T12:07:35;1.60;;;1.00;;
30149;SDS011;16962;48.646;9.026;2023-03-13T12:10:36;2.10;;;1.20;;
30149;SDS011;16962;48.646;9.026;2023-03-13T12:13:33;1.25;;;0.88;;
30149;SDS011;16962;48.646;9.026;2023-03-13T12:16:36;1.38;;;0.80;;
30149;SDS011;16962;48.646;9.026;2023-03-13T12:20:01;1.13;;;0.90;;
30149;SDS011;16962;48.646;9.026;2023-03-13T12:26:09;5.05;;;0.93;;
30149;SDS011;16962;48.646;9.026;2023-03-13T12:29:07;3.40;;;0.93;;
30149;SDS011;16962;48.646;9.026;2023-03-13T12:35:36;0.73;;;0.60;;
30149;SDS011;16962;48.646;9.026;2023-03-13T12:44:18;1.60;;;0.80;;
30149;SDS011;16962;48.646;9.026;2023-03-13T12:59:58;2.08;;;0.85;;
30149;SDS011;16962;48.646;9.026;2023-03-13T13:06:13;4.35;;;0.93;;
30149;SDS011;16962;48.646;9.026;2023-03-13T13:09:06;2.92;;;1.08;;
30149;SDS011;16962;48.646;9.026;2023-03-13T13:12:17;2.20;;;0.60;;
30149;SDS011;16962;48.646;9.026;2023-03-13T13:21:23;0.80;;;0.60;;
30149;SDS011;16962;48.646;9.026;2023-03-13T13:24:38;1.35;;;0.70;;
30149;SDS011;16962;48.646;9.026;2023-03-13T13:39:20;1.45;;;0.70;;
30149;SDS011;16962;48.646;9.026;2023-03-13T13:45:21;1.13;;;0.70;;
30149;SDS011;16962;48.646;9.026;2023-03-13T13:48:15;2.08;;;0.70;;
30149;SDS011;16962;48.646;9.026;2023-03-13T13:57:07;1.65;;;1.00;;
30149;SDS011;16962;48.646;9.026;2023-03-13T14:03:27;3.28;;;0.77;;
30149;SDS011;16962;48.646;9.026;2023-03-13T14:06:17;9.57;;;4.30;;
30149;SDS011;16962;48.646;9.026;2023-03-13T14:09:12;2.83;;;0.77;;
30149;SDS011;16962;48.646;9.026;2023-03-13T14:15:29;1.40;;;0.90;;
30149;SDS011;16962;48.646;9.026;2023-03-13T14:18:22;2.15;;;1.02;;
30149;SDS011;16962;48.646;9.026;2023-03-13T14:21:11;3.58;;;0.88;;
30149;SDS011;16962;48.646;9.026;2023-03-13T14:23:59;1.33;;;0.73;;
30149;SDS011;16962;48.646;9.026;2023-03-13T14:26:50;2.08;;;0.70;;
30149;SDS011;16962;48.646;9.026;2023-03-13T14:29:37;2.45;;;0.70;;
30149;SDS011;16962;48.646;9.026;2023-03-13T14:32:25;3.47;;;1.00;;
30149;SDS011;16962;48.646;9.026;2023-03-13T14:35:13;1.60;;;0.70;;
30149;SDS011;16962;48.646;9.026;2023-03-13T14:38:05;3.05;;;0.90;;
30149;SDS011;16962;48.646;9.026;2023-03-13T14:40:53;2.72;;;1.00;;
30149;SDS011;16962;48.646;9.026;2023-03-13T14:43:41;3.55;;;0.73;;
30149;SDS011;16962;48.646;9.026;2023-03-13T14:46:32;4.75;;;1.42;;
30149;SDS011;16962;48.646;9.026;2023-03-13T14:49:31;2.17;;;0.70;;
30149;SDS011;16962;48.646;9.026;2023-03-13T14:52:22;4.75;;;0.90;;
30149;SDS011;16962;48.646;9.026;2023-03-13T15:01:22;1.33;;;0.90;;
30149;SDS011;16962;48.646;9.026;2023-03-13T15:04:11;1.25;;;0.82;;
30149;SDS011;16962;48.646;9.026;2023-03-13T15:07:02;4.60;;;0.93;;
30149;SDS011;16962;48.646;9.026;2023-03-13T15:09:54;2.13;;;0.95;;
30149;SDS011;16962;48.646;9.026;2023-03-13T15:12:51;2.72;;;1.00;;
30149;SDS011;16962;48.646;9.026;2023-03-13T15:15:40;3.63;;;1.00;;
30149;SDS011;16962;48.646;9.026;2023-03-13T15:18:31;3.65;;;0.98;;
30149;SDS011;16962;48.646;9.026;2023-03-13T15:21:24;6.30;;;0.90;;
30149;SDS011;16962;48.646;9.026;2023-03-13T15:24:16;1.95;;;0.75;;
30149;SDS011;16962;48.646;9.026;2023-03-13T15:27:12;4.85;;;1.02;;
30149;SDS011;16962;48.646;9.026;2023-03-13T15:30:02;2.25;;;0.90;;
30149;SDS011;16962;48.646;9.026;2023-03-13T15:32:53;1.92;;;1.10;;
30149;SDS011;16962;48.646;9.026;2023-03-13T15:35:41;3.40;;;0.80;;
30149;SDS011;16962;48.646;9.026;2023-03-13T15:38:29;1.17;;;0.80;;
30149;SDS011;16962;48.646;9.026;2023-03-13T15:41:17;1.73;;;0.90;;
30149;SDS011;16962;48.646;9.026;2023-03-13T15:44:06;2.42;;;0.80;;
30149;SDS011;16962;48.646;9.026;2023-03-13T15:46:56;2.45;;;0.90;;
30149;SDS011;16962;48.646;9.026;2023-03-13T15:49:44;2.38;;;0.70;;
30149;SDS011;16962;48.646;9.026;2023-03-13T15:52:34;10.05;;;1.40;;
30149;SDS011;16962;48.646;9.026;2023-03-13T15:55:21;1.90;;;0.90;;
30149;SDS011;16962;48.646;9.026;2023-03-13T15:58:14;2.90;;;1.10;;
30149;SDS011;16962;48.646;9.026;2023-03-13T16:01:02;3.45;;;1.17;;
30149;SDS011;16962;48.646;9.026;2023-03-13T16:03:50;4.60;;;1.40;;
30149;SDS011;16962;48.646;9.026;2023-03-13T16:06:38;3.63;;;1.23;;
30149;SDS011;16962;48.646;9.026;2023-03-13T16:09:25;3.55;;;1.23;;
30149;SDS011;16962;48.646;9.026;2023-03-13T16:12:15;3.00;;;1.45;;
30149;SDS011;16962;48.646;9.026;2023-03-13T16:15:04;4.57;;;1.40;;
30149;SDS011;16962;48.646;9.026;2023-03-13T16:17:52;2.78;;;1.25;;
30149;SDS011;16962;48.646;9.026;2023-03-13T16:20:40;3.35;;;1.00;;
30149;SDS011;16962;48.646;9.026;2023-03-13T16:23:30;2.47;;;1.17;;
30149;SDS011;16962;48.646;9.026;2023-03-13T16:26:18;3.78;;;0.90;;
30149;SDS011;16962;48.646;9.026;2023-03-13T16:29:14;2.90;;;1.20;;
30149;SDS011;16962;48.646;9.026;2023-03-13T16:32:02;1.20;;;0.80;;
30149;SDS011;16962;48.646;9.026;2023-03-13T16:34:49;3.65;;;1.00;;
30149;SDS011;16962;48.646;9.026;2023-03-13T16:37:37;2.25;;;1.00;;
30149;SDS011;16962;48.646;9.026;2023-03-13T16:40:26;1.38;;;1.02;;
30149;SDS011;16962;48.646;9.026;2023-03-13T16:43:19;2.97;;;0.80;;
30149;SDS011;16962;48.646;9.026;2023-03-13T16:46:20;1.73;;;0.85;;
30149;SDS011;16962;48.646;9.026;2023-03-13T16:49:10;3.30;;;1.20;;
30149;SDS011;16962;48.646;9.026;2023-03-13T16:52:00;2.92;;;1.23;;
30149;SDS011;16962;48.646;9.026;2023-03-13T16:54:47;2.72;;;0.80;;
30149;SDS011;16962;48.646;9.026;2023-03-13T16:57:35;3.95;;;0.90;;
30149;SDS011;16962;48.646;9.026;2023-03-13T17:00:29;1.35;;;1.10;;
30149;SDS011;16962;48.646;9.026;2023-03-13T17:03:20;2.47;;;1.03;;
30149;SDS011;16962;48.646;9.026;2023-03-13T17:06:12;3.85;;;1.45;;
30149;SDS011;16962;48.646;9.026;2023-03-13T17:09:11;3.28;;;1.02;;
30149;SDS011;16962;48.646;9.026;2023-03-13T17:12:02;1.15;;;0.90;;
30149;SDS011;16962;48.646;9.026;2023-03-13T17:14:50;4.78;;;1.30;;
30149;SDS011;16962;48.646;9.026;2023-03-13T17:17:37;3.97;;;1.20;;
30149;SDS011;16962;48.646;9.026;2023-03-13T17:20:26;3.42;;;1.00;;
30149;SDS011;16962;48.646;9.026;2023-03-13T17:23:15;4.68;;;2.15;;
30149;SDS011;16962;48.646;9.026;2023-03-13T17:26:03;3.83;;;1.60;;
30149;SDS011;16962;48.646;9.026;2023-03-13T17:28:59;6.15;;;2.63;;
30149;SDS011;16962;48.646;9.026;2023-03-13T17:31:47;4.97;;;1.75;;
30149;SDS011;16962;48.646;9.026;2023-03-13T17:34:34;4.20;;;1.98;;
30149;SDS011;16962;48.646;9.026;2023-03-13T17:37:21;3.97;;;1.42;;
30149;SDS011;16962;48.646;9.026;2023-03-13T17:40:12;5.72;;;1.55;;
30149;SDS011;16962;48.646;9.026;2023-03-13T17:43:02;4.03;;;1.65;;
30149;SDS011;16962;48.646;9.026;2023-03-13T17:45:52;2.45;;;1.48;;
30149;SDS011;16962;48.646;9.026;2023-03-13T17:48:41;4.20;;;1.60;;
30149;SDS011;16962;48.646;9.026;2023-03-13T17:51:30;2.90;;;1.58;;
30149;SDS011;16962;48.646;9.026;2023-03-13T17:54:18;8.48;;;2.60;;
30149;SDS011;16962;48.646;9.026;2023-03-13T17:57:18;8.07;;;4.35;;
30149;SDS011;16962;48.646;9.026;2023-03-13T18:00:16;9.18;;;5.25;;
30149;SDS011;16962;48.646;9.026;2023-03-13T18:03:14;8.30;;;2.42;;
30149;SDS011;16962;48.646;9.026;2023-03-13T18:06:04;4.70;;;2.05;;
30149;SDS011;16962;48.646;9.026;2023-03-13T18:09:00;2.38;;;1.30;;
30149;SDS011;16962;48.646;9.026;2023-03-13T18:11:53;2.78;;;0.88;;
30149;SDS011;16962;48.646;9.026;2023-03-13T18:14:41;3.88;;;2.08;;
30149;SDS011;16962;48.646;9.026;2023-03-13T18:17:29;3.88;;;2.38;;
30149;SDS011;16962;48.646;9.026;2023-03-13T18:23:08;3.33;;;2.05;;
30149;SDS011;16962;48.646;9.026;2023-03-13T18:25:55;7.40;;;2.40;;
30149;SDS011;16962;48.646;9.026;2023-03-13T18:28:50;2.65;;;1.70;;
30149;SDS011;16962;48.646;9.026;2023-03-13T18:31:38;2.00;;;1.27;;
30149;SDS011;16962;48.646;9.026;2023-03-13T18:34:27;5.50;;;1.15;;
30149;SDS011;16962;48.646;9.026;2023-03-13T18:37:17;2.28;;;1.60;;
30149;SDS011;16962;48.646;9.026;2023-03-13T18:43:08;10.23;;;2.35;;
30149;SDS011;16962;48.646;9.026;2023-03-13T18:46:00;3.20;;;1.48;;
30149;SDS011;16962;48.646;9.026;2023-03-13T18:48:49;9.65;;;2.17;;
30149;SDS011;16962;48.646;9.026;2023-03-13T18:51:39;4.50;;;1.90;;
30149;SDS011;16962;48.646;9.026;2023-03-13T18:54:27;3.15;;;1.77;;
30149;SDS011;16962;48.646;9.026;2023-03-13T18:57:16;2.35;;;1.50;;
30149;SDS011;16962;48.646;9.026;2023-03-13T19:00:11;5.60;;;2.40;;
30149;SDS011;16962;48.646;9.026;2023-03-13T19:03:04;3.65;;;2.20;;
30149;SDS011;16962;48.646;9.026;2023-03-13T19:05:52;6.05;;;3.58;;
30149;SDS011;16962;48.646;9.026;2023-03-13T19:08:42;8.05;;;2.90;;
30149;SDS011;16962;48.646;9.026;2023-03-13T19:11:30;10.73;;;2.78;;
30149;SDS011;16962;48.646;9.026;2023-03-13T19:14:21;8.95;;;2.70;;
30149;SDS011;16962;48.646;9.026;2023-03-13T19:17:21;9.63;;;3.17;;
30149;SDS011;16962;48.646;9.026;2023-03-13T19:20:14;5.45;;;3.08;;
30149;SDS011;16962;48.646;9.026;2023-03-13T19:23:08;6.20;;;3.10;;
30149;SDS011;16962;48.646;9.026;2023-03-13T19:25:55;7.93;;;3.30;;